• Join FlightAware (Why Join?)
  • Login
  • US Flag 
06:52AM EDT


 

Airport Tracker/Info


-or-


 

Live Flight TrackerFlight Track Log ✈ UAL5865 ✈ 21-Apr-2013 ✈ KGSP - KORD

Flight Track Log - Related Links

Times and Time Zones

All times are in EDT time to prevent confusion due to time zone crossing. See the UAL5865 flight status page for this flight to view local times or setup timezone preferences in your user account.

Time Position Orientation Groundspeed Altitude Reporting Facility
EDT Latitude Longitude Course Direction KTS MPH feet Rate Location/Type
12:29PM 34.9481 -82.1181 North 214 246 4,900  Level Atlanta Center
12:30PM 35.0167 -81.9497 90° East  Level FlightAware Approximate
12:30PM 34.9864 -82.0511 55° Northeast 223 257 7,000  Level Atlanta Center
12:31PM 35.0854 -81.9167 North  Level FlightAware Approximate
12:31PM 35.0636 -82.0367 North 228 262 9,000  Level Atlanta Center
12:32PM 35.1717 -81.9262 348° North  Level FlightAware Approximate
12:32PM 35.1467 -82.0244 North 274 315 10,200  Level Atlanta Center
12:33PM 35.2581 -81.9333 North  Level FlightAware Approximate
12:33PM 35.2406 -82.0119 North 324 373 11,400  Level Atlanta Center
12:34PM 35.3451 -81.9333 North  Level FlightAware Approximate
12:34PM 35.3308 -82.0608 336° Northwest 345 397 12,500  Level Atlanta Center
12:35PM 35.4111 -82.1122 332° Northwest 353 406 13,400 900 Climbing Atlanta Center
12:36PM 35.5039 -82.1739 332° Northwest 374 430 14,400 1,020 Climbing Atlanta Center
12:37PM 35.5964 -82.2331 333° Northwest 380 437 15,500 1,020 Climbing Atlanta Center
12:38PM 35.6914 -82.2950 332° Northwest 380 437 16,500 1,020 Climbing Atlanta Center
12:39PM 35.7944 -82.3619 332° Northwest 380 437 17,600 840 Climbing Atlanta Center
12:40PM 35.8892 -82.4239 332° Northwest 380 437 18,200 780 Climbing Atlanta Center
12:41PM 35.9839 -82.4861 332° Northwest 385 443 19,200 1,020 Climbing Atlanta Center
12:42PM 36.0806 -82.5511 331° Northwest 385 443 20,300 1,020 Climbing Atlanta Center
12:43PM 36.1772 -82.6136 332° Northwest 396 456 21,300 960 Climbing Atlanta Center
12:44PM 36.2761 -82.6789 332° Northwest 396 456 22,300 1,020 Climbing Atlanta Center
12:45PM 36.3769 -82.7442 332° Northwest 401 461 23,400 1,020 Climbing Atlanta Center
12:46PM 36.5253 -82.8450 331° Northwest 404 465 25,000 960 Climbing Indianapolis Center
12:47PM 36.6247 -82.9100 332° Northwest 402 463 26,000 960 Climbing Indianapolis Center
12:48PM 36.7231 -82.9761 332° Northwest 399 459 27,000 960 Climbing Indianapolis Center
12:49PM 36.8211 -83.0436 331° Northwest 397 457 28,000 480 Climbing Indianapolis Center
12:50PM 36.9231 -83.1119 332° Northwest 406 467 28,000 540 Level Indianapolis Center
12:51PM 37.0431 -83.1925 332° Northwest 414 476 29,200 1,020 Climbing Indianapolis Center
12:52PM 37.1433 -83.2619 331° Northwest 409 471 30,200 960 Climbing Indianapolis Center
12:53PM 37.2433 -83.3294 332° Northwest 407 468 31,300 1,020 Climbing Indianapolis Center
12:54PM 37.3439 -83.3994 331° Northwest 410 472 32,300 960 Climbing Indianapolis Center
12:55PM 37.4461 -83.4697 331° Northwest 415 478 33,300 720 Climbing Indianapolis Center
12:56PM 37.5469 -83.5397 331° Northwest 414 476 33,900 300 Climbing Indianapolis Center
12:58PM 37.6697 -83.6242 331° Northwest 426 490 34,000  Climbing Indianapolis Center
12:59PM 37.7811 -83.7003 332° Northwest 448 516 34,000  Level Indianapolis Center
01:00PM 37.8900 -83.7750 332° Northwest 447 514 34,000  Level Indianapolis Center
01:01PM 37.9969 -83.8506 331° Northwest 438 504 34,000  Level Indianapolis Center
01:02PM 38.1047 -83.9278 331° Northwest 442 509 34,000  Level Indianapolis Center
01:03PM 38.2136 -84.0033 331° Northwest 445 512 34,000  Level Indianapolis Center
01:04PM 38.3419 -84.0906 332° Northwest 445 512 34,000  Level Indianapolis Center
01:05PM 38.4508 -84.1694 330° Northwest 446 513 34,000  Level Indianapolis Center
01:06PM 38.5444 -84.2667 321° Northwest 429 494 34,000  Level Indianapolis Center
01:07PM 38.6319 -84.3725 317° Northwest 431 496 34,000  Level Indianapolis Center
01:08PM 38.7233 -84.4833 317° Northwest 431 496 34,000  Level Indianapolis Center
01:09PM 38.8067 -84.5864 316° Northwest 434 499 34,000  Level Indianapolis Center
01:10PM 38.8942 -84.6914 317° Northwest 431 496 34,000  Level Indianapolis Center
01:11PM 38.9883 -84.8044 317° Northwest 429 494 34,000  Level Indianapolis Center
01:12PM 39.0744 -84.9083 317° Northwest 429 494 34,000 -360 Level Indianapolis Center
01:13PM 39.1733 -84.9981 325° Northwest 431 496 33,300 -1,140 Descending Indianapolis Center
01:14PM 39.2897 -85.0561 339° North 441 507 31,700 -1,740 Descending Indianapolis Center
01:15PM 39.4056 -85.1144 339° North 442 509 29,800 -1,800 Descending Indianapolis Center
01:16PM 39.5472 -85.1869 338° Northwest 462 532 28,100 -900 Descending Indianapolis Center
01:17PM 39.6633 -85.2464 338° Northwest 449 517 28,000 -60 Descending Indianapolis Center
01:18PM 39.7783 -85.3058 338° Northwest 441 507 28,000 -300 Level Indianapolis Center
01:19PM 39.8939 -85.3653 338° Northwest 441 507 27,400 -780 Descending Indianapolis Center
01:20PM 40.0044 -85.4228 338° Northwest 426 490 26,400 -780 Descending Indianapolis Center
01:21PM 40.1156 -85.4800 339° North 425 489 25,900 -240 Descending Indianapolis Center
01:22PM 40.2289 -85.5392 338° Northwest 429 494 26,000 -540 Climbing Indianapolis Center
01:23PM 40.3403 -85.5975 338° Northwest 428 493 24,800 -900 Descending Indianapolis Center
01:24PM 40.4661 -85.6633 338° Northwest 427 491 24,000 -840 Descending Chicago Center
01:26PM 40.5769 -85.7100 342° North 420 483 23,000 -1,260 Descending Chicago Center
01:27PM 40.7064 -85.7597 344° North 406 467 21,500 -1,380 Descending Chicago Center
01:28PM 40.8150 -85.8033 343° North 407 468 20,200 -780 Descending Chicago Center
01:29PM 40.9219 -85.8436 344° North 400 460 20,000 -120 Descending Chicago Center
01:30PM 41.0106 -85.9167 328° Northwest 383 441 20,000  Level Chicago Center
01:31PM 41.0431 -86.0494 288° West 376 433 20,000  Level Chicago Center
01:32PM 41.0636 -86.1856 281° West 377 434 20,000 -180 Level Chicago Center
01:33PM 41.0869 -86.3492 281° West 376 433 19,700 -780 Descending Chicago Center
01:34PM 41.1053 -86.4825 280° West 370 426 18,500 -900 Descending Chicago Center
01:35PM 41.1256 -86.6128 282° West 363 418 17,900 -1,020 Descending Chicago Center
01:36PM 41.1761 -86.7425 297° West 359 413 16,400 -1,500 Descending Chicago Center
01:37PM 41.2242 -86.8558 299° West 356 410 14,900 -1,500 Descending Chicago Center
01:38PM 41.2714 -86.9692 299° West 352 405 13,400 -1,380 Descending Chicago Center
01:39PM 41.3175 -87.0789 299° West 344 396 12,100 -1,200 Descending Chicago Center
01:40PM 41.3617 -87.1861 299° West 336 387 11,000 -780 Descending Chicago Center
01:40PM 41.4000 -87.2333 317° Northwest 340 391 11,000  Level Chicago TRACON
01:41PM 41.4667 -87.3167 317° Northwest 339 390 11,000  Level Chicago TRACON
01:43PM 41.5500 -87.4167 318° Northwest 337 388 11,000  Level Chicago TRACON
01:43PM 41.5847 -87.4481 326° Northwest 334 384 11,000  Level Chicago Center
01:44PM 41.6558 -87.5272 320° Northwest 334 384 11,000  Level Chicago Center
01:45PM 41.7264 -87.6078 320° Northwest 336 387 11,000 -180 Level Chicago Center
01:45PM 41.7500 -87.6333 321° Northwest 329 379 10,800 -900 Descending Chicago TRACON
01:46PM 41.8167 -87.7167 317° Northwest 281 323 9,900 -1,200 Descending Chicago TRACON
01:47PM 41.8667 -87.7833 315° West 264 304 8,400 -1,380 Descending Chicago TRACON
01:49PM 41.8833 -87.8833 283° West 250 288 7,100 -720 Descending Chicago TRACON
01:50PM 41.8833 -87.9667 270° West 253 291 7,000 -840 Descending Chicago TRACON
01:51PM 41.8833 -88.1500 270° West 244 281 4,700 -1,080 Descending Chicago TRACON
01:52PM 41.8833 -88.2264 270° West 244 281 4,000 -360 Descending Chicago Center
01:53PM 41.9150 -88.2764 310° West 235 270 4,000  Level Chicago Center
01:54PM 41.9564 -88.2464 28° Northeast 211 243 4,000  Level Chicago Center
01:55PM 41.9681 -88.1794 77° East 196 226 4,000 -300 Level Chicago Center
01:56PM 41.9667 -88.1000 91° East 178 205 3,400 -660 Descending Chicago TRACON